Harve-St-Pierre, Canada
Current Conditions -  °F | °C
As of 10:00 AM on Wednesday 26 Nov 2014 (Local Time) from CYGV Reporting Station
Clear Clear  
Wind Chill: 18°   Ceiling: Unl
Heat Index: 28°   Visibility: 9mi
Dew Point: 18°   Wind: 13mph
Humidity: 64%   Direction: 300°WNW
Pressure: 30"   Gusts: NA
Location:  50.24°N, 63.6°W
Report Text: CYGV 261400Z AUTO 30011KT 9SM CLR M02/M08 A3000 RMK PRESRR SLP160
Loading
Personal Weather Stations






























Interactive Weather Map New forecast layout! Learn more

10-Day Weather Forecast

Advertisements
Track Severe Weather on mobile